Lower Longswamp, Pennsylvania
Current Conditions -  °F | °C
As of 3:55 PM on Tuesday 21 Oct 2014 (Local Time) from KXLL Reporting Station
Overcast Overcast  
Wind Chill: 63°   Ceiling: 8500
Heat Index: 63°   Visibility: 10mi
Dew Point: 46°   Wind: 5mph
Humidity: 55%   Direction: 330°NNW
Pressure: 29.83"   Gusts: NA
Location:  40.4939°N, 75.6842°W
Report Text: KXLL 211955Z AUTO 33004KT 10SM SCT049 OVC085 17/08 A2983 RMK AO2 LTG DSNT NE
Loading
Personal Weather Stations






























Interactive Weather Map
Tropical Storm Tracking
New forecast layout! Learn more

10-Day Weather Forecast

Advertisements
Track Severe Weather on mobile